sensor_id;sensor_type;location;lat;lon;timestamp;P1;durP1;ratioP1;P2;durP2;ratioP2
15043;SDS011;7619;48.562;8.910;2023-06-19T00:01:35;4.07;;;3.63;;
15043;SDS011;7619;48.562;8.910;2023-06-19T00:04:04;4.07;;;3.67;;
15043;SDS011;7619;48.562;8.910;2023-06-19T00:06:32;4.40;;;4.00;;
15043;SDS011;7619;48.562;8.910;2023-06-19T00:09:00;3.60;;;3.30;;
15043;SDS011;7619;48.562;8.910;2023-06-19T00:11:28;4.07;;;3.70;;
15043;SDS011;7619;48.562;8.910;2023-06-19T00:13:56;3.73;;;3.43;;
15043;SDS011;7619;48.562;8.910;2023-06-19T00:16:24;4.40;;;3.93;;
15043;SDS011;7619;48.562;8.910;2023-06-19T00:18:52;5.50;;;3.47;;
15043;SDS011;7619;48.562;8.910;2023-06-19T00:21:22;4.30;;;3.80;;
15043;SDS011;7619;48.562;8.910;2023-06-19T00:23:51;5.13;;;3.97;;
15043;SDS011;7619;48.562;8.910;2023-06-19T00:26:20;3.67;;;3.37;;
15043;SDS011;7619;48.562;8.910;2023-06-19T00:28:49;4.70;;;3.73;;
15043;SDS011;7619;48.562;8.910;2023-06-19T00:31:17;4.70;;;3.70;;
15043;SDS011;7619;48.562;8.910;2023-06-19T00:33:45;4.73;;;3.83;;
15043;SDS011;7619;48.562;8.910;2023-06-19T00:36:15;5.40;;;4.37;;
15043;SDS011;7619;48.562;8.910;2023-06-19T00:38:45;3.93;;;3.53;;
15043;SDS011;7619;48.562;8.910;2023-06-19T00:41:13;4.50;;;3.70;;
15043;SDS011;7619;48.562;8.910;2023-06-19T00:43:42;4.67;;;3.83;;
15043;SDS011;7619;48.562;8.910;2023-06-19T00:46:10;4.93;;;3.77;;
15043;SDS011;7619;48.562;8.910;2023-06-19T00:48:39;4.13;;;3.50;;
15043;SDS011;7619;48.562;8.910;2023-06-19T00:51:07;4.37;;;3.97;;
15043;SDS011;7619;48.562;8.910;2023-06-19T00:53:35;4.83;;;4.37;;
15043;SDS011;7619;48.562;8.910;2023-06-19T00:56:04;4.37;;;3.80;;
15043;SDS011;7619;48.562;8.910;2023-06-19T00:58:33;4.37;;;3.93;;
15043;SDS011;7619;48.562;8.910;2023-06-19T01:01:02;4.93;;;4.13;;
15043;SDS011;7619;48.562;8.910;2023-06-19T01:03:30;4.40;;;4.00;;
15043;SDS011;7619;48.562;8.910;2023-06-19T01:05:58;6.20;;;3.93;;
15043;SDS011;7619;48.562;8.910;2023-06-19T01:08:33;5.00;;;4.23;;
15043;SDS011;7619;48.562;8.910;2023-06-19T01:11:00;4.60;;;3.80;;
15043;SDS011;7619;48.562;8.910;2023-06-19T01:13:31;5.47;;;4.07;;
15043;SDS011;7619;48.562;8.910;2023-06-19T01:15:59;4.10;;;3.70;;
15043;SDS011;7619;48.562;8.910;2023-06-19T01:18:28;3.50;;;3.20;;
15043;SDS011;7619;48.562;8.910;2023-06-19T01:20:57;3.40;;;3.10;;
15043;SDS011;7619;48.562;8.910;2023-06-19T01:23:26;3.70;;;3.27;;
15043;SDS011;7619;48.562;8.910;2023-06-19T01:25:54;3.63;;;3.33;;
15043;SDS011;7619;48.562;8.910;2023-06-19T01:28:22;3.37;;;3.07;;
15043;SDS011;7619;48.562;8.910;2023-06-19T01:30:52;3.80;;;3.37;;
15043;SDS011;7619;48.562;8.910;2023-06-19T01:33:23;3.03;;;2.73;;
15043;SDS011;7619;48.562;8.910;2023-06-19T01:35:52;2.60;;;2.40;;
15043;SDS011;7619;48.562;8.910;2023-06-19T01:38:22;2.80;;;2.33;;
15043;SDS011;7619;48.562;8.910;2023-06-19T01:40:52;4.13;;;2.63;;
15043;SDS011;7619;48.562;8.910;2023-06-19T01:43:21;5.27;;;2.90;;
15043;SDS011;7619;48.562;8.910;2023-06-19T01:45:50;3.40;;;2.40;;
15043;SDS011;7619;48.562;8.910;2023-06-19T01:48:19;2.60;;;2.40;;
15043;SDS011;7619;48.562;8.910;2023-06-19T01:50:48;2.87;;;2.20;;
15043;SDS011;7619;48.562;8.910;2023-06-19T01:53:16;2.57;;;2.33;;
15043;SDS011;7619;48.562;8.910;2023-06-19T01:55:44;2.67;;;2.37;;
15043;SDS011;7619;48.562;8.910;2023-06-19T01:58:12;2.97;;;2.67;;
15043;SDS011;7619;48.562;8.910;2023-06-19T02:00:40;2.27;;;2.00;;
15043;SDS011;7619;48.562;8.910;2023-06-19T02:03:08;2.23;;;2.03;;
15043;SDS011;7619;48.562;8.910;2023-06-19T02:05:36;3.00;;;2.50;;
15043;SDS011;7619;48.562;8.910;2023-06-19T02:08:06;2.60;;;1.60;;
15043;SDS011;7619;48.562;8.910;2023-06-19T02:10:34;2.90;;;2.20;;
15043;SDS011;7619;48.562;8.910;2023-06-19T02:13:02;2.60;;;2.37;;
15043;SDS011;7619;48.562;8.910;2023-06-19T02:15:30;3.27;;;2.33;;
15043;SDS011;7619;48.562;8.910;2023-06-19T02:17:59;2.60;;;2.30;;
15043;SDS011;7619;48.562;8.910;2023-06-19T02:20:27;2.00;;;1.77;;
15043;SDS011;7619;48.562;8.910;2023-06-19T02:22:56;3.90;;;2.73;;
15043;SDS011;7619;48.562;8.910;2023-06-19T02:25:24;4.30;;;2.30;;
15043;SDS011;7619;48.562;8.910;2023-06-19T02:27:52;2.50;;;2.30;;
15043;SDS011;7619;48.562;8.910;2023-06-19T02:30:20;3.20;;;2.33;;
15043;SDS011;7619;48.562;8.910;2023-06-19T02:32:48;2.53;;;2.10;;
15043;SDS011;7619;48.562;8.910;2023-06-19T02:35:16;3.17;;;2.53;;
15043;SDS011;7619;48.562;8.910;2023-06-19T02:37:44;3.00;;;2.60;;
15043;SDS011;7619;48.562;8.910;2023-06-19T02:40:13;2.27;;;2.07;;
15043;SDS011;7619;48.562;8.910;2023-06-19T02:42:41;2.50;;;2.30;;
15043;SDS011;7619;48.562;8.910;2023-06-19T02:45:09;2.70;;;2.50;;
15043;SDS011;7619;48.562;8.910;2023-06-19T02:47:37;2.60;;;2.40;;
15043;SDS011;7619;48.562;8.910;2023-06-19T02:50:06;2.93;;;2.47;;
15043;SDS011;7619;48.562;8.910;2023-06-19T02:52:34;3.03;;;2.60;;
15043;SDS011;7619;48.562;8.910;2023-06-19T02:55:03;2.47;;;2.13;;
15043;SDS011;7619;48.562;8.910;2023-06-19T02:57:31;3.33;;;3.00;;
15043;SDS011;7619;48.562;8.910;2023-06-19T02:59:59;2.60;;;2.40;;
15043;SDS011;7619;48.562;8.910;2023-06-19T03:02:27;3.20;;;2.90;;
15043;SDS011;7619;48.562;8.910;2023-06-19T03:04:55;3.97;;;2.87;;
15043;SDS011;7619;48.562;8.910;2023-06-19T03:07:23;3.03;;;2.50;;
15043;SDS011;7619;48.562;8.910;2023-06-19T03:09:53;2.60;;;2.40;;
15043;SDS011;7619;48.562;8.910;2023-06-19T03:12:21;3.30;;;2.83;;
15043;SDS011;7619;48.562;8.910;2023-06-19T03:14:49;2.97;;;2.63;;
15043;SDS011;7619;48.562;8.910;2023-06-19T03:17:17;3.03;;;2.50;;
15043;SDS011;7619;48.562;8.910;2023-06-19T03:19:45;3.00;;;2.30;;
15043;SDS011;7619;48.562;8.910;2023-06-19T03:22:13;3.17;;;2.60;;
15043;SDS011;7619;48.562;8.910;2023-06-19T03:24:41;3.83;;;2.63;;
15043;SDS011;7619;48.562;8.910;2023-06-19T03:27:09;3.00;;;2.70;;
15043;SDS011;7619;48.562;8.910;2023-06-19T03:29:37;2.23;;;2.03;;
15043;SDS011;7619;48.562;8.910;2023-06-19T03:32:06;2.97;;;2.20;;
15043;SDS011;7619;48.562;8.910;2023-06-19T03:34:34;3.33;;;2.17;;
15043;SDS011;7619;48.562;8.910;2023-06-19T03:37:02;2.43;;;1.83;;
15043;SDS011;7619;48.562;8.910;2023-06-19T03:39:30;2.37;;;2.13;;
15043;SDS011;7619;48.562;8.910;2023-06-19T03:41:58;2.53;;;2.10;;
15043;SDS011;7619;48.562;8.910;2023-06-19T03:44:26;3.23;;;2.20;;
15043;SDS011;7619;48.562;8.910;2023-06-19T03:46:54;2.50;;;2.30;;
15043;SDS011;7619;48.562;8.910;2023-06-19T03:49:22;2.73;;;2.33;;
15043;SDS011;7619;48.562;8.910;2023-06-19T03:51:51;2.73;;;2.30;;
15043;SDS011;7619;48.562;8.910;2023-06-19T03:54:21;3.10;;;2.20;;
15043;SDS011;7619;48.562;8.910;2023-06-19T03:56:49;2.70;;;2.20;;
15043;SDS011;7619;48.562;8.910;2023-06-19T03:59:17;2.20;;;2.00;;
15043;SDS011;7619;48.562;8.910;2023-06-19T04:01:45;1.83;;;1.70;;
15043;SDS011;7619;48.562;8.910;2023-06-19T04:04:13;2.70;;;2.30;;
15043;SDS011;7619;48.562;8.910;2023-06-19T04:06:41;1.77;;;1.67;;
15043;SDS011;7619;48.562;8.910;2023-06-19T04:09:09;3.00;;;2.13;;
15043;SDS011;7619;48.562;8.910;2023-06-19T04:11:37;2.10;;;2.00;;
15043;SDS011;7619;48.562;8.910;2023-06-19T04:14:05;1.80;;;1.70;;
15043;SDS011;7619;48.562;8.910;2023-06-19T04:16:33;1.87;;;1.73;;
15043;SDS011;7619;48.562;8.910;2023-06-19T04:19:01;2.63;;;2.23;;
15043;SDS011;7619;48.562;8.910;2023-06-19T04:21:30;1.87;;;1.77;;
15043;SDS011;7619;48.562;8.910;2023-06-19T04:23:58;1.63;;;1.53;;
15043;SDS011;7619;48.562;8.910;2023-06-19T04:26:26;2.83;;;1.93;;
15043;SDS011;7619;48.562;8.910;2023-06-19T04:28:54;2.17;;;1.97;;
15043;SDS011;7619;48.562;8.910;2023-06-19T04:31:23;2.37;;;2.00;;
15043;SDS011;7619;48.562;8.910;2023-06-19T04:33:52;2.30;;;2.10;;
15043;SDS011;7619;48.562;8.910;2023-06-19T04:36:22;2.50;;;1.67;;
15043;SDS011;7619;48.562;8.910;2023-06-19T04:38:50;2.07;;;1.80;;
15043;SDS011;7619;48.562;8.910;2023-06-19T04:41:19;2.37;;;2.07;;
15043;SDS011;7619;48.562;8.910;2023-06-19T04:43:47;2.40;;;1.60;;
15043;SDS011;7619;48.562;8.910;2023-06-19T04:46:15;2.37;;;1.63;;
15043;SDS011;7619;48.562;8.910;2023-06-19T04:48:45;1.80;;;1.70;;
15043;SDS011;7619;48.562;8.910;2023-06-19T04:51:16;2.60;;;1.83;;
15043;SDS011;7619;48.562;8.910;2023-06-19T04:53:46;3.30;;;1.90;;
15043;SDS011;7619;48.562;8.910;2023-06-19T04:56:15;1.83;;;1.73;;
15043;SDS011;7619;48.562;8.910;2023-06-19T04:58:43;2.23;;;1.90;;
15043;SDS011;7619;48.562;8.910;2023-06-19T05:01:13;2.23;;;1.87;;
15043;SDS011;7619;48.562;8.910;2023-06-19T05:03:42;2.27;;;2.00;;
15043;SDS011;7619;48.562;8.910;2023-06-19T05:06:10;1.57;;;1.47;;
15043;SDS011;7619;48.562;8.910;2023-06-19T05:08:38;1.87;;;1.77;;
15043;SDS011;7619;48.562;8.910;2023-06-19T05:11:06;2.23;;;2.00;;
15043;SDS011;7619;48.562;8.910;2023-06-19T05:13:34;3.00;;;1.97;;
15043;SDS011;7619;48.562;8.910;2023-06-19T05:16:02;2.13;;;1.93;;
15043;SDS011;7619;48.562;8.910;2023-06-19T05:21:07;2.63;;;2.23;;
15043;SDS011;7619;48.562;8.910;2023-06-19T05:23:35;3.47;;;2.10;;
15043;SDS011;7619;48.562;8.910;2023-06-19T05:26:05;2.47;;;2.00;;
15043;SDS011;7619;48.562;8.910;2023-06-19T05:28:33;2.23;;;1.80;;
15043;SDS011;7619;48.562;8.910;2023-06-19T05:31:02;2.37;;;2.07;;
15043;SDS011;7619;48.562;8.910;2023-06-19T05:33:31;2.33;;;2.13;;
15043;SDS011;7619;48.562;8.910;2023-06-19T05:35:59;2.13;;;1.93;;
15043;SDS011;7619;48.562;8.910;2023-06-19T05:38:29;2.23;;;2.03;;
15043;SDS011;7619;48.562;8.910;2023-06-19T05:40:57;2.17;;;1.77;;
15043;SDS011;7619;48.562;8.910;2023-06-19T05:43:26;3.13;;;2.40;;
15043;SDS011;7619;48.562;8.910;2023-06-19T05:45:54;2.13;;;2.03;;
15043;SDS011;7619;48.562;8.910;2023-06-19T05:48:24;1.80;;;1.70;;
15043;SDS011;7619;48.562;8.910;2023-06-19T05:50:52;2.67;;;2.33;;
15043;SDS011;7619;48.562;8.910;2023-06-19T05:53:20;2.20;;;1.80;;
15043;SDS011;7619;48.562;8.910;2023-06-19T05:55:49;3.70;;;2.60;;
15043;SDS011;7619;48.562;8.910;2023-06-19T06:00:55;2.70;;;2.03;;
15043;SDS011;7619;48.562;8.910;2023-06-19T06:03:25;2.23;;;2.03;;
15043;SDS011;7619;48.562;8.910;2023-06-19T06:05:54;2.20;;;1.90;;
15043;SDS011;7619;48.562;8.910;2023-06-19T06:08:24;2.73;;;2.10;;
15043;SDS011;7619;48.562;8.910;2023-06-19T06:10:52;2.83;;;2.00;;
15043;SDS011;7619;48.562;8.910;2023-06-19T06:13:21;1.83;;;1.70;;
15043;SDS011;7619;48.562;8.910;2023-06-19T06:15:49;2.50;;;1.83;;
15043;SDS011;7619;48.562;8.910;2023-06-19T06:18:18;4.07;;;2.00;;
15043;SDS011;7619;48.562;8.910;2023-06-19T06:20:47;1.83;;;1.70;;
15043;SDS011;7619;48.562;8.910;2023-06-19T06:23:15;1.90;;;1.67;;
15043;SDS011;7619;48.562;8.910;2023-06-19T06:25:43;1.90;;;1.80;;
15043;SDS011;7619;48.562;8.910;2023-06-19T06:28:12;2.17;;;1.97;;
15043;SDS011;7619;48.562;8.910;2023-06-19T06:30:41;2.23;;;2.03;;
15043;SDS011;7619;48.562;8.910;2023-06-19T06:33:10;2.67;;;2.23;;
15043;SDS011;7619;48.562;8.910;2023-06-19T06:35:38;4.17;;;1.63;;
15043;SDS011;7619;48.562;8.910;2023-06-19T06:38:06;2.60;;;2.40;;
15043;SDS011;7619;48.562;8.910;2023-06-19T06:40:34;2.00;;;1.70;;
15043;SDS011;7619;48.562;8.910;2023-06-19T06:43:03;1.87;;;1.67;;
15043;SDS011;7619;48.562;8.910;2023-06-19T06:45:31;1.83;;;1.50;;
15043;SDS011;7619;48.562;8.910;2023-06-19T06:47:59;2.30;;;2.10;;
15043;SDS011;7619;48.562;8.910;2023-06-19T06:50:28;3.17;;;1.93;;
15043;SDS011;7619;48.562;8.910;2023-06-19T06:52:57;1.70;;;1.53;;
15043;SDS011;7619;48.562;8.910;2023-06-19T06:55:26;2.07;;;1.87;;
15043;SDS011;7619;48.562;8.910;2023-06-19T06:57:54;2.40;;;1.90;;
15043;SDS011;7619;48.562;8.910;2023-06-19T07:00:22;2.77;;;2.10;;
15043;SDS011;7619;48.562;8.910;2023-06-19T07:02:50;3.60;;;1.93;;
15043;SDS011;7619;48.562;8.910;2023-06-19T07:05:18;2.03;;;1.80;;
15043;SDS011;7619;48.562;8.910;2023-06-19T07:07:47;2.50;;;2.30;;
15043;SDS011;7619;48.562;8.910;2023-06-19T07:10:15;2.20;;;1.90;;
15043;SDS011;7619;48.562;8.910;2023-06-19T07:12:46;2.10;;;1.70;;
15043;SDS011;7619;48.562;8.910;2023-06-19T07:15:15;2.03;;;1.77;;
15043;SDS011;7619;48.562;8.910;2023-06-19T07:17:43;2.17;;;1.90;;
15043;SDS011;7619;48.562;8.910;2023-06-19T07:20:12;1.97;;;1.87;;
15043;SDS011;7619;48.562;8.910;2023-06-19T07:22:40;2.17;;;1.97;;
15043;SDS011;7619;48.562;8.910;2023-06-19T07:25:09;2.20;;;1.90;;
15043;SDS011;7619;48.562;8.910;2023-06-19T07:27:38;2.40;;;2.20;;
15043;SDS011;7619;48.562;8.910;2023-06-19T07:30:07;1.90;;;1.80;;
15043;SDS011;7619;48.562;8.910;2023-06-19T07:32:35;2.17;;;1.83;;
15043;SDS011;7619;48.562;8.910;2023-06-19T07:35:04;1.80;;;1.70;;
15043;SDS011;7619;48.562;8.910;2023-06-19T07:37:32;2.77;;;2.10;;
15043;SDS011;7619;48.562;8.910;2023-06-19T07:40:01;2.13;;;2.00;;
15043;SDS011;7619;48.562;8.910;2023-06-19T07:42:29;2.27;;;2.07;;
15043;SDS011;7619;48.562;8.910;2023-06-19T07:44:57;1.87;;;1.73;;
15043;SDS011;7619;48.562;8.910;2023-06-19T07:47:26;2.30;;;2.10;;
15043;SDS011;7619;48.562;8.910;2023-06-19T07:49:55;2.13;;;1.93;;
15043;SDS011;7619;48.562;8.910;2023-06-19T07:52:23;2.43;;;2.23;;
15043;SDS011;7619;48.562;8.910;2023-06-19T07:54:51;2.37;;;2.17;;
15043;SDS011;7619;48.562;8.910;2023-06-19T07:57:20;2.27;;;2.07;;
15043;SDS011;7619;48.562;8.910;2023-06-19T07:59:49;2.27;;;2.07;;
15043;SDS011;7619;48.562;8.910;2023-06-19T08:02:17;2.30;;;2.10;;
15043;SDS011;7619;48.562;8.910;2023-06-19T08:04:46;1.93;;;1.83;;
15043;SDS011;7619;48.562;8.910;2023-06-19T08:07:14;1.83;;;1.73;;
15043;SDS011;7619;48.562;8.910;2023-06-19T08:09:42;1.60;;;1.50;;
15043;SDS011;7619;48.562;8.910;2023-06-19T08:12:10;2.50;;;1.67;;
15043;SDS011;7619;48.562;8.910;2023-06-19T08:14:39;2.03;;;1.90;;
15043;SDS011;7619;48.562;8.910;2023-06-19T08:17:07;1.93;;;1.70;;
15043;SDS011;7619;48.562;8.910;2023-06-19T08:19:35;1.77;;;1.60;;
15043;SDS011;7619;48.562;8.910;2023-06-19T08:22:05;1.73;;;1.63;;
15043;SDS011;7619;48.562;8.910;2023-06-19T08:24:34;1.57;;;1.47;;
15043;SDS011;7619;48.562;8.910;2023-06-19T08:27:03;1.70;;;1.60;;
15043;SDS011;7619;48.562;8.910;2023-06-19T08:29:31;1.87;;;1.77;;
15043;SDS011;7619;48.562;8.910;2023-06-19T08:31:59;2.10;;;1.80;;
15043;SDS011;7619;48.562;8.910;2023-06-19T08:34:29;1.50;;;1.40;;
15043;SDS011;7619;48.562;8.910;2023-06-19T08:36:58;1.70;;;1.60;;
15043;SDS011;7619;48.562;8.910;2023-06-19T08:39:26;1.70;;;1.60;;
15043;SDS011;7619;48.562;8.910;2023-06-19T08:41:55;1.83;;;1.50;;
15043;SDS011;7619;48.562;8.910;2023-06-19T08:44:23;1.63;;;1.53;;
15043;SDS011;7619;48.562;8.910;2023-06-19T08:46:51;1.87;;;1.73;;
15043;SDS011;7619;48.562;8.910;2023-06-19T08:49:19;2.80;;;2.13;;
15043;SDS011;7619;48.562;8.910;2023-06-19T08:51:47;2.10;;;1.80;;
15043;SDS011;7619;48.562;8.910;2023-06-19T08:54:17;2.13;;;1.93;;
15043;SDS011;7619;48.562;8.910;2023-06-19T08:56:46;1.67;;;1.50;;
15043;SDS011;7619;48.562;8.910;2023-06-19T08:59:15;2.60;;;2.33;;
15043;SDS011;7619;48.562;8.910;2023-06-19T09:01:46;2.20;;;2.00;;
15043;SDS011;7619;48.562;8.910;2023-06-19T09:04:18;2.23;;;1.90;;
15043;SDS011;7619;48.562;8.910;2023-06-19T09:06:47;1.73;;;1.63;;
15043;SDS011;7619;48.562;8.910;2023-06-19T09:09:16;1.80;;;1.40;;
15043;SDS011;7619;48.562;8.910;2023-06-19T09:11:54;1.93;;;1.60;;
15043;SDS011;7619;48.562;8.910;2023-06-19T09:14:14;1.83;;;1.50;;
15043;SDS011;7619;48.562;8.910;2023-06-19T09:16:42;1.70;;;1.60;;
15043;SDS011;7619;48.562;8.910;2023-06-19T09:19:10;1.70;;;1.60;;
15043;SDS011;7619;48.562;8.910;2023-06-19T09:21:38;1.37;;;1.23;;
15043;SDS011;7619;48.562;8.910;2023-06-19T09:24:07;2.13;;;1.70;;
15043;SDS011;7619;48.562;8.910;2023-06-19T09:26:35;1.70;;;1.40;;
15043;SDS011;7619;48.562;8.910;2023-06-19T09:29:10;1.90;;;1.60;;
15043;SDS011;7619;48.562;8.910;2023-06-19T09:31:38;1.57;;;1.47;;
15043;SDS011;7619;48.562;8.910;2023-06-19T09:34:08;1.53;;;1.43;;
15043;SDS011;7619;48.562;8.910;2023-06-19T09:36:37;1.70;;;1.60;;
15043;SDS011;7619;48.562;8.910;2023-06-19T09:39:06;1.73;;;1.60;;
15043;SDS011;7619;48.562;8.910;2023-06-19T09:41:35;1.40;;;1.30;;
15043;SDS011;7619;48.562;8.910;2023-06-19T09:44:05;1.63;;;1.53;;
15043;SDS011;7619;48.562;8.910;2023-06-19T09:46:35;1.43;;;1.20;;
15043;SDS011;7619;48.562;8.910;2023-06-19T09:49:05;1.60;;;1.50;;
15043;SDS011;7619;48.562;8.910;2023-06-19T09:51:36;2.27;;;1.30;;
15043;SDS011;7619;48.562;8.910;2023-06-19T09:54:03;1.70;;;1.60;;
15043;SDS011;7619;48.562;8.910;2023-06-19T09:56:33;1.47;;;1.37;;
15043;SDS011;7619;48.562;8.910;2023-06-19T09:59:01;1.77;;;1.67;;
15043;SDS011;7619;48.562;8.910;2023-06-19T10:01:31;1.57;;;1.47;;
15043;SDS011;7619;48.562;8.910;2023-06-19T10:04:04;1.77;;;1.57;;
15043;SDS011;7619;48.562;8.910;2023-06-19T10:06:32;1.40;;;1.30;;
15043;SDS011;7619;48.562;8.910;2023-06-19T10:09:07;1.30;;;1.20;;
15043;SDS011;7619;48.562;8.910;2023-06-19T10:11:47;1.43;;;1.33;;
15043;SDS011;7619;48.562;8.910;2023-06-19T10:14:15;1.40;;;1.30;;
15043;SDS011;7619;48.562;8.910;2023-06-19T10:16:45;1.83;;;1.33;;
15043;SDS011;7619;48.562;8.910;2023-06-19T10:19:14;1.60;;;1.50;;
15043;SDS011;7619;48.562;8.910;2023-06-19T10:21:47;1.40;;;1.30;;
15043;SDS011;7619;48.562;8.910;2023-06-19T10:24:17;1.40;;;1.30;;
15043;SDS011;7619;48.562;8.910;2023-06-19T10:29:38;1.77;;;1.17;;
15043;SDS011;7619;48.562;8.910;2023-06-19T10:32:07;1.40;;;1.30;;
15043;SDS011;7619;48.562;8.910;2023-06-19T10:34:35;1.43;;;1.33;;
15043;SDS011;7619;48.562;8.910;2023-06-19T10:37:03;1.17;;;1.07;;
15043;SDS011;7619;48.562;8.910;2023-06-19T10:39:32;1.50;;;1.40;;
15043;SDS011;7619;48.562;8.910;2023-06-19T10:42:00;1.40;;;1.30;;
15043;SDS011;7619;48.562;8.910;2023-06-19T10:44:30;1.83;;;1.50;;
15043;SDS011;7619;48.562;8.910;2023-06-19T10:46:58;1.87;;;1.30;;
15043;SDS011;7619;48.562;8.910;2023-06-19T10:49:27;1.70;;;1.30;;
15043;SDS011;7619;48.562;8.910;2023-06-19T10:51:55;1.40;;;1.30;;
15043;SDS011;7619;48.562;8.910;2023-06-19T10:54:26;1.97;;;1.50;;
15043;SDS011;7619;48.562;8.910;2023-06-19T10:56:55;1.40;;;1.30;;
15043;SDS011;7619;48.562;8.910;2023-06-19T10:59:24;1.23;;;1.13;;
15043;SDS011;7619;48.562;8.910;2023-06-19T11:01:52;1.37;;;1.27;;
15043;SDS011;7619;48.562;8.910;2023-06-19T11:04:20;1.20;;;1.10;;
15043;SDS011;7619;48.562;8.910;2023-06-19T11:06:50;1.30;;;1.20;;
15043;SDS011;7619;48.562;8.910;2023-06-19T11:09:18;1.20;;;1.10;;
15043;SDS011;7619;48.562;8.910;2023-06-19T11:11:47;1.17;;;1.07;;
15043;SDS011;7619;48.562;8.910;2023-06-19T11:14:16;1.60;;;1.50;;
15043;SDS011;7619;48.562;8.910;2023-06-19T11:16:45;1.23;;;1.13;;
15043;SDS011;7619;48.562;8.910;2023-06-19T11:19:15;1.57;;;1.40;;
15043;SDS011;7619;48.562;8.910;2023-06-19T11:21:45;1.83;;;1.60;;
15043;SDS011;7619;48.562;8.910;2023-06-19T11:24:13;2.77;;;1.40;;
15043;SDS011;7619;48.562;8.910;2023-06-19T11:26:41;1.40;;;1.30;;
15043;SDS011;7619;48.562;8.910;2023-06-19T11:29:14;1.40;;;1.30;;
15043;SDS011;7619;48.562;8.910;2023-06-19T11:31:42;1.40;;;1.30;;
15043;SDS011;7619;48.562;8.910;2023-06-19T11:34:10;1.10;;;1.00;;
15043;SDS011;7619;48.562;8.910;2023-06-19T11:36:39;1.40;;;1.30;;
15043;SDS011;7619;48.562;8.910;2023-06-19T11:39:09;1.67;;;1.47;;
15043;SDS011;7619;48.562;8.910;2023-06-19T11:41:39;1.40;;;1.30;;
15043;SDS011;7619;48.562;8.910;2023-06-19T11:44:07;1.10;;;1.00;;
15043;SDS011;7619;48.562;8.910;2023-06-19T11:46:37;1.30;;;1.20;;
15043;SDS011;7619;48.562;8.910;2023-06-19T11:49:08;1.40;;;1.30;;
15043;SDS011;7619;48.562;8.910;2023-06-19T11:51:37;1.30;;;1.20;;
15043;SDS011;7619;48.562;8.910;2023-06-19T11:54:06;1.47;;;1.37;;
15043;SDS011;7619;48.562;8.910;2023-06-19T11:56:35;1.00;;;1.00;;
15043;SDS011;7619;48.562;8.910;2023-06-19T11:59:03;1.50;;;1.40;;
15043;SDS011;7619;48.562;8.910;2023-06-19T12:01:31;1.70;;;1.40;;
15043;SDS011;7619;48.562;8.910;2023-06-19T12:03:59;1.80;;;1.20;;
15043;SDS011;7619;48.562;8.910;2023-06-19T12:06:27;4.10;;;1.53;;
15043;SDS011;7619;48.562;8.910;2023-06-19T12:08:55;1.70;;;1.40;;
15043;SDS011;7619;48.562;8.910;2023-06-19T12:11:24;2.30;;;1.27;;
15043;SDS011;7619;48.562;8.910;2023-06-19T12:13:52;1.97;;;1.50;;
15043;SDS011;7619;48.562;8.910;2023-06-19T12:16:22;2.17;;;1.00;;
15043;SDS011;7619;48.562;8.910;2023-06-19T12:18:50;1.20;;;1.10;;
15043;SDS011;7619;48.562;8.910;2023-06-19T12:21:19;1.67;;;1.40;;
15043;SDS011;7619;48.562;8.910;2023-06-19T12:23:47;2.10;;;1.50;;
15043;SDS011;7619;48.562;8.910;2023-06-19T12:26:15;1.27;;;1.17;;
15043;SDS011;7619;48.562;8.910;2023-06-19T12:28:43;1.63;;;1.53;;
15043;SDS011;7619;48.562;8.910;2023-06-19T12:31:11;1.60;;;1.40;;
15043;SDS011;7619;48.562;8.910;2023-06-19T12:33:39;1.10;;;1.07;;
15043;SDS011;7619;48.562;8.910;2023-06-19T12:36:11;1.87;;;1.73;;
15043;SDS011;7619;48.562;8.910;2023-06-19T12:38:40;1.50;;;1.40;;
15043;SDS011;7619;48.562;8.910;2023-06-19T12:41:08;1.63;;;1.53;;
15043;SDS011;7619;48.562;8.910;2023-06-19T12:43:36;1.40;;;1.30;;
15043;SDS011;7619;48.562;8.910;2023-06-19T12:46:04;1.70;;;1.60;;
15043;SDS011;7619;48.562;8.910;2023-06-19T12:48:32;1.40;;;1.30;;
15043;SDS011;7619;48.562;8.910;2023-06-19T12:51:00;1.60;;;1.50;;
15043;SDS011;7619;48.562;8.910;2023-06-19T12:53:29;1.57;;;1.47;;
15043;SDS011;7619;48.562;8.910;2023-06-19T12:55:57;2.23;;;1.70;;
15043;SDS011;7619;48.562;8.910;2023-06-19T12:58:25;1.40;;;1.30;;
15043;SDS011;7619;48.562;8.910;2023-06-19T13:00:54;1.53;;;1.30;;
15043;SDS011;7619;48.562;8.910;2023-06-19T13:05:58;1.27;;;1.17;;
15043;SDS011;7619;48.562;8.910;2023-06-19T13:08:26;1.33;;;1.23;;
15043;SDS011;7619;48.562;8.910;2023-06-19T13:10:55;1.60;;;1.50;;
15043;SDS011;7619;48.562;8.910;2023-06-19T13:13:23;1.90;;;1.53;;
15043;SDS011;7619;48.562;8.910;2023-06-19T13:15:51;1.37;;;1.27;;
15043;SDS011;7619;48.562;8.910;2023-06-19T13:18:19;1.50;;;1.20;;
15043;SDS011;7619;48.562;8.910;2023-06-19T13:20:47;1.60;;;1.50;;
15043;SDS011;7619;48.562;8.910;2023-06-19T13:23:16;1.60;;;1.50;;
15043;SDS011;7619;48.562;8.910;2023-06-19T13:25:44;1.50;;;1.40;;
15043;SDS011;7619;48.562;8.910;2023-06-19T13:28:12;1.67;;;1.57;;
15043;SDS011;7619;48.562;8.910;2023-06-19T13:30:40;1.43;;;1.23;;
15043;SDS011;7619;48.562;8.910;2023-06-19T13:33:09;1.60;;;1.50;;
15043;SDS011;7619;48.562;8.910;2023-06-19T13:35:38;1.33;;;1.23;;
15043;SDS011;7619;48.562;8.910;2023-06-19T13:38:06;1.70;;;1.60;;
15043;SDS011;7619;48.562;8.910;2023-06-19T13:40:34;1.83;;;1.73;;
15043;SDS011;7619;48.562;8.910;2023-06-19T13:43:02;2.10;;;1.40;;
15043;SDS011;7619;48.562;8.910;2023-06-19T13:45:30;1.20;;;1.10;;
15043;SDS011;7619;48.562;8.910;2023-06-19T13:47:58;1.30;;;1.20;;
15043;SDS011;7619;48.562;8.910;2023-06-19T13:50:26;2.23;;;1.53;;
15043;SDS011;7619;48.562;8.910;2023-06-19T13:52:54;1.70;;;1.60;;
15043;SDS011;7619;48.562;8.910;2023-06-19T13:55:22;2.00;;;1.83;;
15043;SDS011;7619;48.562;8.910;2023-06-19T13:57:51;1.90;;;1.70;;
15043;SDS011;7619;48.562;8.910;2023-06-19T14:00:19;1.50;;;1.40;;
15043;SDS011;7619;48.562;8.910;2023-06-19T14:02:47;2.37;;;1.60;;
15043;SDS011;7619;48.562;8.910;2023-06-19T14:05:16;1.90;;;1.70;;
15043;SDS011;7619;48.562;8.910;2023-06-19T14:07:44;1.73;;;1.63;;
15043;SDS011;7619;48.562;8.910;2023-06-19T14:10:13;1.60;;;1.50;;
15043;SDS011;7619;48.562;8.910;2023-06-19T14:12:41;1.90;;;1.80;;
15043;SDS011;7619;48.562;8.910;2023-06-19T14:15:09;2.00;;;1.83;;
15043;SDS011;7619;48.562;8.910;2023-06-19T14:17:37;1.90;;;1.80;;
15043;SDS011;7619;48.562;8.910;2023-06-19T14:20:10;2.20;;;2.00;;
15043;SDS011;7619;48.562;8.910;2023-06-19T14:22:38;1.67;;;1.50;;
15043;SDS011;7619;48.562;8.910;2023-06-19T14:25:06;1.60;;;1.50;;
15043;SDS011;7619;48.562;8.910;2023-06-19T14:27:35;2.13;;;1.93;;
15043;SDS011;7619;48.562;8.910;2023-06-19T14:30:04;2.30;;;2.10;;
15043;SDS011;7619;48.562;8.910;2023-06-19T14:32:32;2.13;;;1.80;;
15043;SDS011;7619;48.562;8.910;2023-06-19T14:35:00;1.70;;;1.60;;
15043;SDS011;7619;48.562;8.910;2023-06-19T14:37:28;2.33;;;2.13;;
15043;SDS011;7619;48.562;8.910;2023-06-19T14:42:34;1.83;;;1.70;;
15043;SDS011;7619;48.562;8.910;2023-06-19T14:45:02;1.83;;;1.70;;
15043;SDS011;7619;48.562;8.910;2023-06-19T14:47:30;2.60;;;2.03;;
15043;SDS011;7619;48.562;8.910;2023-06-19T14:49:58;1.70;;;1.60;;
15043;SDS011;7619;48.562;8.910;2023-06-19T14:52:27;2.13;;;1.93;;
15043;SDS011;7619;48.562;8.910;2023-06-19T14:54:55;2.30;;;2.10;;
15043;SDS011;7619;48.562;8.910;2023-06-19T14:57:24;2.50;;;2.00;;
15043;SDS011;7619;48.562;8.910;2023-06-19T14:59:52;2.13;;;1.93;;
15043;SDS011;7619;48.562;8.910;2023-06-19T15:02:20;2.87;;;2.30;;
15043;SDS011;7619;48.562;8.910;2023-06-19T15:04:49;2.17;;;2.07;;
15043;SDS011;7619;48.562;8.910;2023-06-19T15:07:17;2.17;;;1.97;;
15043;SDS011;7619;48.562;8.910;2023-06-19T15:09:45;3.30;;;2.37;;
15043;SDS011;7619;48.562;8.910;2023-06-19T15:12:13;1.90;;;1.67;;
15043;SDS011;7619;48.562;8.910;2023-06-19T15:14:41;2.47;;;2.10;;
15043;SDS011;7619;48.562;8.910;2023-06-19T15:17:09;2.63;;;1.93;;
15043;SDS011;7619;48.562;8.910;2023-06-19T15:19:37;2.30;;;1.77;;
15043;SDS011;7619;48.562;8.910;2023-06-19T15:22:05;2.60;;;2.23;;